Time;durP1;ratioP1;P1;durP2;ratioP2;P2;SDS_P1;SDS_P2;PMS_P1;PMS_P2;Temp;Humidity;BMP_temperature;BMP_pressure;BME280_temperature;BME280_humidity;BME280_pressure;Samples;Min_cycle;Max_cycle;Signal;HPM_P1;HPM_P2
2023/10/17 00:00:38;;;;;;;;;;;;;;;;;;5119650;28;19956;-53
2023/10/17 00:03:04;;;;;;;;;;;;;;;;;;5108071;28;19938;-54
2023/10/17 00:05:29;;;;;;;;;;;;;;;;;;5113940;28;19947;-53
2023/10/17 00:07:58;;;;;;;;;;;;;;;;;;5115573;28;19912;-57
2023/10/17 00:10:24;;;;;;;;;;;;;;;;;;5115600;28;19918;-53
2023/10/17 00:12:53;;;;;;;;;;;;;;;;;;5115484;28;19919;-54
2023/10/17 00:17:47;;;;;;;;;;;;;;;;;;5115642;28;19912;-53
2023/10/17 00:20:17;;;;;;;;;;;;;;;;;;5125297;28;19911;-54
2023/10/17 00:22:42;;;;;;;;;;;;;;;;;;5116289;28;19916;-52
2023/10/17 00:25:09;;;;;;;;;;;;;;;;;;5115699;28;19912;-50
2023/10/17 00:27:35;;;;;;;;;;;;;;;;;;5115272;28;19912;-53
2023/10/17 00:30:01;;;;;;;;;;;;;;;;;;5114811;28;19916;-54
2023/10/17 00:32:29;;;;;;;;;;;;;;;;;;5114719;28;19934;-48
2023/10/17 00:34:58;;;;;;;;;;;;;;;;;;5115319;28;20344;-53
2023/10/17 00:37:30;;;;;;;;;;;;;;;;;;5115417;28;19912;-53
2023/10/17 00:39:56;;;;;;;;;;;;;;;;;;5118760;28;19922;-52
2023/10/17 00:42:29;;;;;;;;;;;;;;;;;;5115340;28;19920;-55
2023/10/17 00:44:55;;;;;;;;;;;;;;;;;;5114781;28;19912;-52
2023/10/17 00:47:22;;;;;;;;;;;;;;;;;;5114550;28;19962;-53
2023/10/17 00:49:49;;;;;;;;;;;;;;;;;;5116089;28;19971;-54
2023/10/17 00:52:18;;;;;;;;;;;;;;;;;;5115145;28;19912;-54
2023/10/17 00:54:44;;;;;;;;;;;;;;;;;;5113667;28;19912;-51
2023/10/17 00:57:09;;;;;;;;;;;;;;;;;;5114851;28;19951;-53
2023/10/17 00:59:35;;;;;;;;;;;;;;;;;;5119864;28;19916;-51
2023/10/17 01:02:06;;;;;;;;;;;;;;;;;;5130245;28;19923;-54
2023/10/17 01:04:33;;;;;;;;;;;;;;;;;;5120652;28;19974;-52
2023/10/17 01:07:05;;;;;;;;;;;;;;;;;;5118539;28;19913;-50
2023/10/17 01:09:34;;;;;;;;;;;;;;;;;;5118400;28;19915;-54
2023/10/17 01:11:59;;;;;;;;;;;;;;;;;;5127857;28;19919;-52
2023/10/17 01:14:24;;;;;;;;;;;;;;;;;;5118874;28;19912;-52
2023/10/17 01:16:53;;;;;;;;;;;;;;;;;;5118892;28;19919;-53
2023/10/17 01:19:19;;;;;;;;;;;;;;;;;;5118745;28;19961;-56
2023/10/17 01:21:44;;;;;;;;;;;;;;;;;;5124633;28;19916;-54
2023/10/17 01:24:10;;;;;;;;;;;;;;;;;;5128853;28;19951;-53
2023/10/17 01:26:37;;;;;;;;;;;;;;;;;;5119014;28;19920;-50
2023/10/17 01:29:03;;;;;;;;;;;;;;;;;;5117517;28;19912;-52
2023/10/17 01:31:30;;;;;;;;;;;;;;;;;;5115189;28;19923;-54
2023/10/17 01:33:56;;;;;;;;;;;;;;;;;;5117250;28;19938;-55
2023/10/17 01:36:21;;;;;;;;;;;;;;;;;;5122128;28;19976;-52
2023/10/17 01:38:49;;;;;;;;;;;;;;;;;;5117181;28;19912;-55
2023/10/17 01:41:14;;;;;;;;;;;;;;;;;;5117255;28;19920;-54
2023/10/17 01:43:45;;;;;;;;;;;;;;;;;;5121727;28;19943;-53
2023/10/17 01:46:14;;;;;;;;;;;;;;;;;;5117641;28;19912;-57
2023/10/17 01:48:44;;;;;;;;;;;;;;;;;;5116786;28;19915;-54
2023/10/17 01:51:12;;;;;;;;;;;;;;;;;;5126177;28;19971;-52
2023/10/17 01:53:39;;;;;;;;;;;;;;;;;;5118409;28;19907;-52
2023/10/17 01:56:13;;;;;;;;;;;;;;;;;;5118594;28;19913;-50
2023/10/17 01:58:39;;;;;;;;;;;;;;;;;;5125205;28;19987;-52
2023/10/17 02:01:13;;;;;;;;;;;;;;;;;;5123098;28;19916;-54
2023/10/17 02:03:40;;;;;;;;;;;;;;;;;;5124995;28;19930;-53
2023/10/17 02:06:15;;;;;;;;;;;;;;;;;;5122561;28;19912;-53
2023/10/17 02:08:40;;;;;;;;;;;;;;;;;;5117469;28;19912;-54
2023/10/17 02:11:08;;;;;;;;;;;;;;;;;;5121442;28;19916;-53
2023/10/17 02:13:35;;;;;;;;;;;;;;;;;;5117827;28;19920;-52
2023/10/17 02:16:00;;;;;;;;;;;;;;;;;;5124343;28;19983;-51
2023/10/17 02:18:26;;;;;;;;;;;;;;;;;;5117182;28;19916;-49
2023/10/17 02:20:51;;;;;;;;;;;;;;;;;;5116495;28;20006;-54
2023/10/17 02:23:25;;;;;;;;;;;;;;;;;;5117521;28;19912;-53
2023/10/17 02:25:52;;;;;;;;;;;;;;;;;;5121230;28;19912;-52
2023/10/17 02:28:17;;;;;;;;;;;;;;;;;;5109862;28;19912;-52
2023/10/17 02:30:42;;;;;;;;;;;;;;;;;;5118157;28;20043;-53
2023/10/17 02:33:17;;;;;;;;;;;;;;;;;;5117665;28;19912;-53
2023/10/17 02:35:42;;;;;;;;;;;;;;;;;;5117643;28;19912;-50
2023/10/17 02:38:08;;;;;;;;;;;;;;;;;;5117112;28;19919;-53
2023/10/17 02:40:38;;;;;;;;;;;;;;;;;;5116869;28;19920;-55
2023/10/17 02:43:03;;;;;;;;;;;;;;;;;;5116072;28;19938;-53
2023/10/17 02:45:28;;;;;;;;;;;;;;;;;;5116999;28;19967;-53
2023/10/17 02:47:54;;;;;;;;;;;;;;;;;;5116255;28;19973;-50
2023/10/17 02:51:03;;;;;;;;;;;;;;;;;;5121907;28;19979;-49
2023/10/17 02:53:14;;;;;;;;;;;;;;;;;;5111267;28;19912;-50
2023/10/17 02:55:40;;;;;;;;;;;;;;;;;;5117069;28;19919;-51
2023/10/17 02:58:05;;;;;;;;;;;;;;;;;;5116264;28;19920;-51
2023/10/17 03:00:34;;;;;;;;;;;;;;;;;;5117106;28;19912;-50
2023/10/17 03:03:12;;;;;;;;;;;;;;;;;;5118090;28;19919;-52
2023/10/17 03:05:39;;;;;;;;;;;;;;;;;;5118894;28;19991;-55
2023/10/17 03:08:10;;;;;;;;;;;;;;;;;;5118461;28;19912;-54
2023/10/17 03:10:39;;;;;;;;;;;;;;;;;;5117009;28;19983;-53
2023/10/17 03:13:22;;;;;;;;;;;;;;;;;;5128595;28;19979;-50
2023/10/17 03:16:00;;;;;;;;;;;;;;;;;;5117480;28;19934;-53
2023/10/17 03:18:26;;;;;;;;;;;;;;;;;;5116003;28;20625;-52
2023/10/17 03:20:51;;;;;;;;;;;;;;;;;;5115352;28;19959;-53
2023/10/17 03:23:17;;;;;;;;;;;;;;;;;;5125471;28;19986;-56
2023/10/17 03:25:46;;;;;;;;;;;;;;;;;;5115930;28;19920;-54
2023/10/17 03:28:13;;;;;;;;;;;;;;;;;;5115639;28;19912;-53
2023/10/17 03:30:39;;;;;;;;;;;;;;;;;;5116030;28;19913;-52
2023/10/17 03:33:14;;;;;;;;;;;;;;;;;;5115132;28;19924;-51
2023/10/17 03:35:49;;;;;;;;;;;;;;;;;;5115464;28;19908;-53
2023/10/17 03:38:15;;;;;;;;;;;;;;;;;;5115586;28;19919;-54
2023/10/17 03:40:50;;;;;;;;;;;;;;;;;;5116129;28;19916;-52
2023/10/17 03:43:21;;;;;;;;;;;;;;;;;;5118115;28;19923;-52
2023/10/17 03:45:56;;;;;;;;;;;;;;;;;;5115498;28;19912;-53
2023/10/17 03:48:23;;;;;;;;;;;;;;;;;;5119428;28;19920;-49
2023/10/17 03:50:57;;;;;;;;;;;;;;;;;;5116072;28;19912;-50
2023/10/17 03:53:28;;;;;;;;;;;;;;;;;;5114963;28;19916;-52
2023/10/17 03:55:54;;;;;;;;;;;;;;;;;;5107809;28;19986;-56
2023/10/17 04:00:49;;;;;;;;;;;;;;;;;;5119956;28;19938;-54
2023/10/17 04:03:53;;;;;;;;;;;;;;;;;;5118502;28;19916;-54
2023/10/17 04:08:34;;;;;;;;;;;;;;;;;;5127442;28;19916;-55
2023/10/17 04:11:17;;;;;;;;;;;;;;;;;;5115544;28;19975;-52
2023/10/17 04:13:43;;;;;;;;;;;;;;;;;;5115859;28;19930;-55
2023/10/17 04:16:16;;;;;;;;;;;;;;;;;;5114976;28;19912;-55
2023/10/17 04:18:44;;;;;;;;;;;;;;;;;;5114856;28;19908;-52
2023/10/17 04:23:55;;;;;;;;;;;;;;;;;;5117689;28;19918;-52
2023/10/17 04:26:27;;;;;;;;;;;;;;;;;;5114749;28;19940;-53
2023/10/17 04:28:54;;;;;;;;;;;;;;;;;;5115083;28;19927;-53
2023/10/17 04:31:28;;;;;;;;;;;;;;;;;;5114738;28;19912;-50
2023/10/17 04:34:06;;;;;;;;;;;;;;;;;;5127580;28;19912;-53
2023/10/17 04:36:35;;;;;;;;;;;;;;;;;;5114590;28;19908;-53
2023/10/17 04:39:11;;;;;;;;;;;;;;;;;;5102501;28;19960;-55
2023/10/17 04:44:25;;;;;;;;;;;;;;;;;;5122641;28;20531;-54
2023/10/17 04:46:51;;;;;;;;;;;;;;;;;;5114101;28;19948;-54
2023/10/17 04:49:21;;;;;;;;;;;;;;;;;;5114436;28;19919;-50
2023/10/17 04:51:51;;;;;;;;;;;;;;;;;;5114895;28;19944;-52
2023/10/17 04:54:30;;;;;;;;;;;;;;;;;;5119854;28;19912;-54
2023/10/17 04:56:59;;;;;;;;;;;;;;;;;;5106915;28;19943;-55
2023/10/17 06:18:32;;;;;;;;;;;;;;;;;;5110494;28;19928;-58
2023/10/17 06:34:10;;;;;;;;;;;;;;;;;;5118025;28;19919;-57
2023/10/17 06:36:40;;;;;;;;;;;;;;;;;;5112446;28;19971;-59
2023/10/17 06:39:13;;;;;;;;;;;;;;;;;;5109466;28;19920;-55
2023/10/17 06:41:39;;;;;;;;;;;;;;;;;;5118742;28;19915;-59
2023/10/17 06:44:05;;;;;;;;;;;;;;;;;;5117717;28;19908;-58
2023/10/17 06:46:48;;;;;;;;;;;;;;;;;;5111779;28;19908;-58
2023/10/17 06:49:28;;;;;;;;;;;;;;;;;;5111845;28;19912;-57
2023/10/17 06:52:09;;;;;;;;;;;;;;;;;;5120487;28;19923;-54
2023/10/17 06:54:40;;;;;;;;;;;;;;;;;;5121998;28;19912;-57
2023/10/17 06:57:18;;;;;;;;;;;;;;;;;;5108356;28;19916;-57
2023/10/17 06:59:44;;;;;;;;;;;;;;;;;;5130182;28;19912;-58
2023/10/17 07:02:19;;;;;;;;;;;;;;;;;;5100242;28;19917;-57
2023/10/17 07:04:50;;;;;;;;;;;;;;;;;;5121918;28;19954;-58
2023/10/17 07:07:18;;;;;;;;;;;;;;;;;;5109806;28;19916;-54
2023/10/17 07:09:52;;;;;;;;;;;;;;;;;;5116771;28;19923;-57
2023/10/17 07:12:19;;;;;;;;;;;;;;;;;;5115673;28;19944;-57
2023/10/17 07:14:51;;;;;;;;;;;;;;;;;;5119041;28;19984;-55
2023/10/17 07:17:27;;;;;;;;;;;;;;;;;;5101876;28;19924;-58
2023/10/17 07:19:59;;;;;;;;;;;;;;;;;;5116942;28;19916;-58
2023/10/17 07:22:25;;;;;;;;;;;;;;;;;;5116381;28;19938;-58
2023/10/17 07:24:52;;;;;;;;;;;;;;;;;;5115780;28;19912;-55
2023/10/17 07:27:27;;;;;;;;;;;;;;;;;;5116342;28;19915;-57
2023/10/17 07:29:58;;;;;;;;;;;;;;;;;;5113928;28;19912;-54
2023/10/17 07:32:25;;;;;;;;;;;;;;;;;;5116077;28;19912;-56
2023/10/17 07:34:58;;;;;;;;;;;;;;;;;;5109979;28;19896;-59
2023/10/17 07:37:24;;;;;;;;;;;;;;;;;;5080820;28;19965;-61
2023/10/17 07:42:40;;;;;;;;;;;;;;;;;;5119879;28;19922;-59
2023/10/17 07:45:13;;;;;;;;;;;;;;;;;;5124500;28;20856;-57
2023/10/17 07:47:41;;;;;;;;;;;;;;;;;;5114838;28;19940;-60
2023/10/17 07:50:12;;;;;;;;;;;;;;;;;;5127924;28;19911;-58
2023/10/17 07:52:38;;;;;;;;;;;;;;;;;;5116214;28;19963;-60
2023/10/17 07:57:52;;;;;;;;;;;;;;;;;;5101592;28;20295;-55
2023/10/17 08:00:27;;;;;;;;;;;;;;;;;;5115199;28;19943;-59
2023/10/17 08:02:52;;;;;;;;;;;;;;;;;;5124813;28;19989;-56
2023/10/17 08:05:19;;;;;;;;;;;;;;;;;;5116054;28;19933;-60
2023/10/17 08:07:49;;;;;;;;;;;;;;;;;;5100428;28;19919;-59
2023/10/17 08:10:29;;;;;;;;;;;;;;;;;;5117571;28;19941;-56
2023/10/17 08:12:57;;;;;;;;;;;;;;;;;;5109414;28;19912;-59
2023/10/17 08:15:23;;;;;;;;;;;;;;;;;;5114273;28;19916;-59
2023/10/17 08:17:49;;;;;;;;;;;;;;;;;;5124439;28;19943;-57
2023/10/17 08:23:06;;;;;;;;;;;;;;;;;;5127206;28;19937;-60
2023/10/17 08:25:39;;;;;;;;;;;;;;;;;;5119249;28;19942;-59
2023/10/17 08:28:13;;;;;;;;;;;;;;;;;;5114287;28;19912;-58
2023/10/17 08:30:39;;;;;;;;;;;;;;;;;;5106148;28;19912;-60
2023/10/17 08:35:51;;;;;;;;;;;;;;;;;;5113655;28;19935;-60
2023/10/17 08:38:17;;;;;;;;;;;;;;;;;;5113648;28;19912;-59
2023/10/17 08:40:49;;;;;;;;;;;;;;;;;;5130109;28;19916;-55
2023/10/17 08:43:19;;;;;;;;;;;;;;;;;;5124306;28;19916;-58
2023/10/17 08:45:46;;;;;;;;;;;;;;;;;;5124806;28;19911;-57
2023/10/17 08:48:11;;;;;;;;;;;;;;;;;;5115338;28;19919;-57
2023/10/17 08:50:37;;;;;;;;;;;;;;;;;;5117222;28;19939;-59
2023/10/17 08:53:06;;;;;;;;;;;;;;;;;;5113193;28;19915;-60
2023/10/17 08:55:32;;;;;;;;;;;;;;;;;;5115245;28;19998;-62
2023/10/17 08:57:59;;;;;;;;;;;;;;;;;;5101512;28;19912;-60
2023/10/17 09:00:48;;;;;;;;;;;;;;;;;;5115091;28;19944;-62
2023/10/17 09:03:11;;;;;;;;;;;;;;;;;;5114623;28;19924;-58
2023/10/17 09:05:37;;;;;;;;;;;;;;;;;;5116396;28;19911;-60
2023/10/17 09:08:11;;;;;;;;;;;;;;;;;;5112790;28;19930;-59
2023/10/17 09:10:37;;;;;;;;;;;;;;;;;;5112958;28;19938;-57
2023/10/17 09:15:55;;;;;;;;;;;;;;;;;;5114403;28;19975;-61
2023/10/17 09:18:21;;;;;;;;;;;;;;;;;;5109099;28;19913;-61
2023/10/17 09:20:48;;;;;;;;;;;;;;;;;;5128493;28;19903;-59
2023/10/17 09:23:14;;;;;;;;;;;;;;;;;;5105231;28;19912;-58
2023/10/17 09:25:39;;;;;;;;;;;;;;;;;;5105804;28;19918;-57
2023/10/17 09:28:05;;;;;;;;;;;;;;;;;;5108661;28;20481;-61
2023/10/17 09:30:31;;;;;;;;;;;;;;;;;;5155455;27;19919;-60
2023/10/17 09:32:59;;;;;;;;;;;;;;;;;;5118851;28;19912;-61
2023/10/17 09:35:25;;;;;;;;;;;;;;;;;;5116948;28;19934;-60
2023/10/17 09:37:56;;;;;;;;;;;;;;;;;;5122468;28;19908;-62
2023/10/17 09:40:27;;;;;;;;;;;;;;;;;;5113116;28;19923;-58
2023/10/17 09:42:53;;;;;;;;;;;;;;;;;;5109813;28;19954;-61
2023/10/17 09:45:19;;;;;;;;;;;;;;;;;;5109087;28;19912;-60
2023/10/17 09:47:45;;;;;;;;;;;;;;;;;;5123131;28;19912;-61
2023/10/17 09:50:11;;;;;;;;;;;;;;;;;;5107499;28;19912;-60
2023/10/17 09:52:36;;;;;;;;;;;;;;;;;;5114379;28;19955;-60
2023/10/17 09:55:04;;;;;;;;;;;;;;;;;;5121708;28;19922;-62
2023/10/17 09:57:29;;;;;;;;;;;;;;;;;;5124374;28;19975;-60
2023/10/17 09:59:55;;;;;;;;;;;;;;;;;;5118232;28;19912;-63
2023/10/17 10:02:20;;;;;;;;;;;;;;;;;;5113611;28;19963;-61
2023/10/17 10:04:46;;;;;;;;;;;;;;;;;;5115787;28;19916;-63
2023/10/17 10:07:12;;;;;;;;;;;;;;;;;;5120131;28;19912;-63
2023/10/17 10:09:37;;;;;;;;;;;;;;;;;;5118446;28;19935;-62
2023/10/17 10:12:03;;;;;;;;;;;;;;;;;;5109313;28;19912;-60
2023/10/17 10:14:36;;;;;;;;;;;;;;;;;;5123176;28;19947;-62
2023/10/17 10:17:05;;;;;;;;;;;;;;;;;;5125754;28;19971;-60
2023/10/17 10:19:31;;;;;;;;;;;;;;;;;;5116455;28;19908;-62
2023/10/17 10:21:58;;;;;;;;;;;;;;;;;;5116333;28;19933;-62
2023/10/17 10:24:24;;;;;;;;;;;;;;;;;;5115142;28;19912;-62
2023/10/17 10:26:50;;;;;;;;;;;;;;;;;;5116259;28;19908;-60
2023/10/17 10:29:15;;;;;;;;;;;;;;;;;;5114741;28;19976;-61
2023/10/17 10:31:41;;;;;;;;;;;;;;;;;;5116011;28;19939;-60
2023/10/17 10:34:07;;;;;;;;;;;;;;;;;;5117686;28;19916;-62
2023/10/17 10:36:33;;;;;;;;;;;;;;;;;;5120365;28;19919;-62
2023/10/17 10:38:59;;;;;;;;;;;;;;;;;;5116329;28;19975;-60
2023/10/17 10:41:25;;;;;;;;;;;;;;;;;;5117255;28;19950;-60
2023/10/17 10:43:51;;;;;;;;;;;;;;;;;;5117431;28;19912;-60
2023/10/17 10:46:17;;;;;;;;;;;;;;;;;;5119881;28;19947;-62
2023/10/17 10:48:44;;;;;;;;;;;;;;;;;;5118110;28;19908;-62
2023/10/17 10:51:09;;;;;;;;;;;;;;;;;;5117355;28;19980;-62
2023/10/17 10:53:39;;;;;;;;;;;;;;;;;;5120436;28;19970;-61
2023/10/17 10:56:06;;;;;;;;;;;;;;;;;;5119712;28;19920;-62
2023/10/17 10:58:33;;;;;;;;;;;;;;;;;;5117247;28;19900;-62
2023/10/17 11:00:58;;;;;;;;;;;;;;;;;;5122868;28;19975;-61
2023/10/17 11:03:24;;;;;;;;;;;;;;;;;;5117093;28;19912;-62
2023/10/17 11:05:49;;;;;;;;;;;;;;;;;;5117050;28;19919;-61
2023/10/17 11:08:16;;;;;;;;;;;;;;;;;;5116841;28;19991;-64
2023/10/17 11:10:41;;;;;;;;;;;;;;;;;;5119907;28;19913;-62
2023/10/17 11:13:08;;;;;;;;;;;;;;;;;;5117432;28;19970;-62
2023/10/17 11:15:33;;;;;;;;;;;;;;;;;;5117114;28;19908;-63
2023/10/17 11:17:58;;;;;;;;;;;;;;;;;;5124783;28;19940;-63
2023/10/17 11:20:24;;;;;;;;;;;;;;;;;;5116037;28;19994;-62
2023/10/17 11:22:49;;;;;;;;;;;;;;;;;;5116762;28;19948;-63
2023/10/17 11:25:26;;;;;;;;;;;;;;;;;;5118447;28;19919;-61
2023/10/17 11:28:00;;;;;;;;;;;;;;;;;;5121251;28;19912;-62
2023/10/17 11:30:39;;;;;;;;;;;;;;;;;;5115679;28;19912;-62
2023/10/17 11:33:06;;;;;;;;;;;;;;;;;;5116704;28;20178;-63
2023/10/17 11:35:32;;;;;;;;;;;;;;;;;;5116429;28;19912;-61
2023/10/17 11:37:58;;;;;;;;;;;;;;;;;;5116537;28;19940;-63
2023/10/17 11:40:29;;;;;;;;;;;;;;;;;;5116260;28;19912;-62
2023/10/17 11:42:55;;;;;;;;;;;;;;;;;;5115528;28;19958;-63
2023/10/17 11:45:25;;;;;;;;;;;;;;;;;;5116233;28;19916;-62
2023/10/17 11:47:55;;;;;;;;;;;;;;;;;;5127286;28;19907;-62
2023/10/17 11:50:20;;;;;;;;;;;;;;;;;;5116261;28;19924;-62
2023/10/17 11:52:46;;;;;;;;;;;;;;;;;;5116444;28;19916;-62
2023/10/17 11:55:11;;;;;;;;;;;;;;;;;;5115828;28;19912;-63
2023/10/17 11:57:37;;;;;;;;;;;;;;;;;;5116334;28;19912;-63
2023/10/17 12:02:43;;;;;;;;;;;;;;;;;;5116130;28;19912;-62
2023/10/17 12:05:18;;;;;;;;;;;;;;;;;;5118143;28;19979;-61
2023/10/17 12:07:43;;;;;;;;;;;;;;;;;;5121818;28;19933;-59
2023/10/17 12:10:09;;;;;;;;;;;;;;;;;;5107448;28;19976;-61
2023/10/17 12:12:34;;;;;;;;;;;;;;;;;;5111274;28;19912;-60
2023/10/17 12:15:00;;;;;;;;;;;;;;;;;;5115962;28;19908;-62
2023/10/17 12:17:26;;;;;;;;;;;;;;;;;;5118475;28;19927;-63
2023/10/17 12:19:52;;;;;;;;;;;;;;;;;;5115950;28;19965;-61
2023/10/17 12:22:18;;;;;;;;;;;;;;;;;;5115104;28;19916;-62
2023/10/17 12:24:45;;;;;;;;;;;;;;;;;;5115801;28;19912;-62
2023/10/17 12:27:12;;;;;;;;;;;;;;;;;;5116547;28;19965;-63
2023/10/17 12:29:38;;;;;;;;;;;;;;;;;;5118189;28;19916;-62
2023/10/17 12:32:05;;;;;;;;;;;;;;;;;;5111420;28;19941;-63
2023/10/17 12:34:30;;;;;;;;;;;;;;;;;;5115686;28;19919;-62
2023/10/17 12:36:56;;;;;;;;;;;;;;;;;;5115526;28;19916;-62
2023/10/17 12:39:21;;;;;;;;;;;;;;;;;;5125045;28;19912;-63
2023/10/17 12:41:47;;;;;;;;;;;;;;;;;;5115313;28;19995;-63
2023/10/17 12:44:13;;;;;;;;;;;;;;;;;;5115420;28;19931;-62
2023/10/17 12:46:38;;;;;;;;;;;;;;;;;;5117575;28;19916;-63
2023/10/17 12:49:04;;;;;;;;;;;;;;;;;;5121884;28;19982;-63
2023/10/17 12:51:30;;;;;;;;;;;;;;;;;;5115271;28;19970;-62
2023/10/17 12:53:56;;;;;;;;;;;;;;;;;;5115269;28;19912;-63
2023/10/17 12:56:21;;;;;;;;;;;;;;;;;;5115210;28;19934;-62
2023/10/17 12:58:47;;;;;;;;;;;;;;;;;;5119232;28;19943;-63
2023/10/17 13:01:12;;;;;;;;;;;;;;;;;;5115088;28;19916;-62
2023/10/17 13:03:38;;;;;;;;;;;;;;;;;;5124560;28;19912;-64
2023/10/17 13:06:04;;;;;;;;;;;;;;;;;;5125889;28;19912;-63
2023/10/17 13:08:31;;;;;;;;;;;;;;;;;;5116126;28;19908;-63
2023/10/17 13:10:57;;;;;;;;;;;;;;;;;;5115220;28;19939;-64
2023/10/17 13:13:23;;;;;;;;;;;;;;;;;;5115010;28;19896;-64
2023/10/17 13:15:48;;;;;;;;;;;;;;;;;;5122639;28;19919;-63
2023/10/17 13:18:14;;;;;;;;;;;;;;;;;;5121278;28;19967;-64
2023/10/17 13:20:46;;;;;;;;;;;;;;;;;;5119801;28;19929;-63
2023/10/17 13:23:12;;;;;;;;;;;;;;;;;;5115096;28;19912;-63
2023/10/17 13:25:40;;;;;;;;;;;;;;;;;;5115175;28;19923;-64
2023/10/17 13:28:06;;;;;;;;;;;;;;;;;;5119228;28;19943;-63
2023/10/17 13:30:31;;;;;;;;;;;;;;;;;;5118916;28;19927;-63
2023/10/17 13:32:57;;;;;;;;;;;;;;;;;;5114955;28;19912;-57
2023/10/17 13:35:22;;;;;;;;;;;;;;;;;;5115374;28;19916;-59
2023/10/17 13:37:51;;;;;;;;;;;;;;;;;;5114944;28;19916;-59
2023/10/17 13:40:16;;;;;;;;;;;;;;;;;;5113377;28;19900;-56
2023/10/17 13:42:42;;;;;;;;;;;;;;;;;;5114781;28;19943;-58
2023/10/17 13:45:07;;;;;;;;;;;;;;;;;;5115375;28;19923;-58
2023/10/17 13:47:32;;;;;;;;;;;;;;;;;;5125245;28;19912;-58
2023/10/17 13:49:58;;;;;;;;;;;;;;;;;;5115559;28;19916;-58
2023/10/17 13:52:24;;;;;;;;;;;;;;;;;;5114239;28;19975;-58
2023/10/17 13:54:50;;;;;;;;;;;;;;;;;;5114653;28;19912;-59
2023/10/17 13:57:16;;;;;;;;;;;;;;;;;;5114651;28;19979;-57
2023/10/17 13:59:47;;;;;;;;;;;;;;;;;;5126714;28;19912;-58
2023/10/17 14:02:17;;;;;;;;;;;;;;;;;;5114163;28;19919;-58
2023/10/17 14:04:43;;;;;;;;;;;;;;;;;;5116946;28;19912;-58
2023/10/17 14:07:11;;;;;;;;;;;;;;;;;;5117334;28;19947;-58
2023/10/17 14:09:39;;;;;;;;;;;;;;;;;;5126923;28;19912;-57
2023/10/17 14:12:04;;;;;;;;;;;;;;;;;;5118295;28;19919;-58
2023/10/17 14:14:30;;;;;;;;;;;;;;;;;;5117766;28;19912;-58
2023/10/17 14:16:58;;;;;;;;;;;;;;;;;;5118181;28;19933;-58
2023/10/17 14:22:08;;;;;;;;;;;;;;;;;;5117857;28;19943;-58
2023/10/17 14:27:20;;;;;;;;;;;;;;;;;;5129508;28;19965;-57
2023/10/17 14:29:45;;;;;;;;;;;;;;;;;;5117749;28;19908;-58
2023/10/17 14:32:11;;;;;;;;;;;;;;;;;;5116292;28;19943;-59
2023/10/17 14:34:37;;;;;;;;;;;;;;;;;;5117817;28;19917;-57
2023/10/17 14:37:03;;;;;;;;;;;;;;;;;;5117214;28;19947;-59
2023/10/17 14:39:29;;;;;;;;;;;;;;;;;;5117648;28;19916;-58
2023/10/17 14:41:54;;;;;;;;;;;;;;;;;;5116664;28;19975;-58
2023/10/17 14:44:20;;;;;;;;;;;;;;;;;;5116595;28;19919;-58
2023/10/17 14:46:46;;;;;;;;;;;;;;;;;;5117172;28;19912;-59
2023/10/17 14:49:12;;;;;;;;;;;;;;;;;;5117389;28;19922;-58
2023/10/17 14:51:38;;;;;;;;;;;;;;;;;;5116643;28;19920;-58
2023/10/17 14:54:08;;;;;;;;;;;;;;;;;;5117352;28;19939;-59
2023/10/17 14:56:33;;;;;;;;;;;;;;;;;;5119782;28;19985;-59
2023/10/17 14:58:58;;;;;;;;;;;;;;;;;;5120522;28;19920;-57
2023/10/17 15:01:26;;;;;;;;;;;;;;;;;;5120013;28;19916;-58
2023/10/17 15:03:52;;;;;;;;;;;;;;;;;;5117080;28;19945;-57
2023/10/17 15:06:17;;;;;;;;;;;;;;;;;;5115983;28;19912;-56
2023/10/17 15:08:43;;;;;;;;;;;;;;;;;;5116576;28;19919;-58
2023/10/17 15:11:10;;;;;;;;;;;;;;;;;;5120055;28;19941;-59
2023/10/17 15:13:36;;;;;;;;;;;;;;;;;;5117063;28;19923;-58
2023/10/17 15:16:04;;;;;;;;;;;;;;;;;;5115986;28;19979;-58
2023/10/17 15:18:30;;;;;;;;;;;;;;;;;;5126256;28;19912;-56
2023/10/17 15:20:55;;;;;;;;;;;;;;;;;;5116858;28;19945;-59
2023/10/17 15:23:21;;;;;;;;;;;;;;;;;;5116719;28;19951;-58
2023/10/17 15:25:46;;;;;;;;;;;;;;;;;;5116556;28;19920;-56
2023/10/17 15:28:12;;;;;;;;;;;;;;;;;;5115970;28;19916;-58
2023/10/17 15:30:37;;;;;;;;;;;;;;;;;;5126893;28;19912;-56
2023/10/17 15:33:03;;;;;;;;;;;;;;;;;;5116776;28;19931;-58
2023/10/17 15:35:29;;;;;;;;;;;;;;;;;;5116044;28;19984;-57
2023/10/17 15:37:55;;;;;;;;;;;;;;;;;;5120551;28;19912;-58
2023/10/17 15:40:21;;;;;;;;;;;;;;;;;;5123483;28;20031;-57
2023/10/17 15:42:47;;;;;;;;;;;;;;;;;;5116563;28;19926;-56
2023/10/17 15:45:14;;;;;;;;;;;;;;;;;;5115029;28;19912;-59
2023/10/17 15:47:39;;;;;;;;;;;;;;;;;;5108223;28;19942;-59
2023/10/17 15:50:04;;;;;;;;;;;;;;;;;;5120267;28;19913;-58
2023/10/17 15:52:30;;;;;;;;;;;;;;;;;;5116505;28;19920;-58
2023/10/17 15:54:55;;;;;;;;;;;;;;;;;;5116215;28;19952;-56
2023/10/17 15:57:22;;;;;;;;;;;;;;;;;;5115185;28;19916;-58
2023/10/17 15:59:49;;;;;;;;;;;;;;;;;;5117396;28;19912;-60
2023/10/17 16:02:15;;;;;;;;;;;;;;;;;;5108482;28;19923;-59
2023/10/17 16:04:40;;;;;;;;;;;;;;;;;;5124983;28;19912;-57
2023/10/17 16:07:06;;;;;;;;;;;;;;;;;;5146285;27;19923;-56
2023/10/17 16:09:31;;;;;;;;;;;;;;;;;;5105004;28;19980;-55
2023/10/17 16:11:57;;;;;;;;;;;;;;;;;;5099340;28;19913;-56
2023/10/17 16:14:22;;;;;;;;;;;;;;;;;;5115603;28;19913;-55
2023/10/17 16:16:48;;;;;;;;;;;;;;;;;;5116693;28;19934;-54
2023/10/17 16:19:13;;;;;;;;;;;;;;;;;;5102706;28;19920;-56
2023/10/17 16:21:39;;;;;;;;;;;;;;;;;;5114636;28;20022;-51
2023/10/17 16:24:06;;;;;;;;;;;;;;;;;;5115063;28;19912;-57
2023/10/17 16:26:32;;;;;;;;;;;;;;;;;;5105246;28;19943;-55
2023/10/17 16:28:57;;;;;;;;;;;;;;;;;;5116907;28;19912;-53
2023/10/17 16:31:25;;;;;;;;;;;;;;;;;;5117686;28;19939;-52
2023/10/17 16:33:50;;;;;;;;;;;;;;;;;;5112532;28;19912;-55
2023/10/17 16:36:15;;;;;;;;;;;;;;;;;;5104841;28;19992;-53
2023/10/17 16:38:45;;;;;;;;;;;;;;;;;;5123846;28;19912;-56
2023/10/17 16:41:11;;;;;;;;;;;;;;;;;;5116534;28;19961;-51
2023/10/17 16:43:36;;;;;;;;;;;;;;;;;;5101709;28;19915;-54
2023/10/17 16:46:02;;;;;;;;;;;;;;;;;;5115068;28;19945;-52
2023/10/17 16:48:27;;;;;;;;;;;;;;;;;;5121164;28;19927;-56
2023/10/17 16:50:55;;;;;;;;;;;;;;;;;;5113231;28;19911;-53
2023/10/17 16:53:21;;;;;;;;;;;;;;;;;;5115167;28;19916;-54
2023/10/17 16:55:47;;;;;;;;;;;;;;;;;;5115025;28;19927;-54
2023/10/17 16:58:12;;;;;;;;;;;;;;;;;;5114821;28;19912;-55
2023/10/17 17:00:38;;;;;;;;;;;;;;;;;;5120871;28;19976;-54
2023/10/17 17:03:05;;;;;;;;;;;;;;;;;;5117524;28;19927;-55
2023/10/17 17:05:31;;;;;;;;;;;;;;;;;;5114389;28;19942;-54
2023/10/17 17:07:57;;;;;;;;;;;;;;;;;;5114907;28;19984;-54
2023/10/17 17:10:22;;;;;;;;;;;;;;;;;;5112120;28;19912;-54
2023/10/17 17:12:47;;;;;;;;;;;;;;;;;;5111658;28;19918;-53
2023/10/17 17:15:13;;;;;;;;;;;;;;;;;;5108814;28;19911;-55
2023/10/17 17:17:38;;;;;;;;;;;;;;;;;;5109970;28;19934;-54
2023/10/17 17:20:10;;;;;;;;;;;;;;;;;;5105896;28;19918;-53
2023/10/17 17:22:36;;;;;;;;;;;;;;;;;;5103317;28;19983;-53
2023/10/17 17:25:04;;;;;;;;;;;;;;;;;;5103418;28;19912;-55
2023/10/17 17:27:31;;;;;;;;;;;;;;;;;;5114873;28;19908;-51
2023/10/17 17:29:57;;;;;;;;;;;;;;;;;;5124760;28;19955;-55
2023/10/17 17:32:22;;;;;;;;;;;;;;;;;;5114399;28;19912;-54
2023/10/17 17:34:48;;;;;;;;;;;;;;;;;;5114537;28;19912;-51
2023/10/17 17:37:14;;;;;;;;;;;;;;;;;;5114261;28;19912;-52
2023/10/17 17:39:39;;;;;;;;;;;;;;;;;;5114562;28;19914;-54
2023/10/17 17:42:05;;;;;;;;;;;;;;;;;;5117341;28;19988;-52
2023/10/17 17:44:31;;;;;;;;;;;;;;;;;;5118243;28;19912;-57
2023/10/17 17:46:56;;;;;;;;;;;;;;;;;;5118208;28;19930;-51
2023/10/17 17:49:22;;;;;;;;;;;;;;;;;;5122296;28;19934;-53
2023/10/17 17:51:47;;;;;;;;;;;;;;;;;;5118035;28;19983;-55
2023/10/17 17:54:15;;;;;;;;;;;;;;;;;;5117931;28;19912;-53
2023/10/17 17:56:43;;;;;;;;;;;;;;;;;;5130434;28;19912;-53
2023/10/17 17:59:08;;;;;;;;;;;;;;;;;;5118667;28;19912;-52
2023/10/17 18:01:34;;;;;;;;;;;;;;;;;;5121280;28;19919;-54
2023/10/17 18:03:59;;;;;;;;;;;;;;;;;;5112315;28;19947;-50
2023/10/17 18:06:24;;;;;;;;;;;;;;;;;;5111185;28;19912;-52
2023/10/17 18:08:50;;;;;;;;;;;;;;;;;;5124325;28;19915;-54
2023/10/17 18:11:15;;;;;;;;;;;;;;;;;;5120344;28;19912;-54
2023/10/17 18:13:40;;;;;;;;;;;;;;;;;;5117724;28;19912;-54
2023/10/17 18:16:06;;;;;;;;;;;;;;;;;;5117674;28;20164;-51
2023/10/17 18:18:32;;;;;;;;;;;;;;;;;;5117716;28;19945;-48
2023/10/17 18:20:58;;;;;;;;;;;;;;;;;;5118892;28;19947;-51
2023/10/17 18:23:24;;;;;;;;;;;;;;;;;;5118129;28;19919;-53
2023/10/17 18:25:49;;;;;;;;;;;;;;;;;;5117239;28;19923;-53
2023/10/17 18:28:15;;;;;;;;;;;;;;;;;;5117520;28;19913;-53
2023/10/17 18:30:40;;;;;;;;;;;;;;;;;;5116204;28;19942;-57
2023/10/17 18:33:06;;;;;;;;;;;;;;;;;;5112322;28;20125;-52
2023/10/17 18:35:34;;;;;;;;;;;;;;;;;;5114049;28;19931;-53
2023/10/17 18:37:59;;;;;;;;;;;;;;;;;;5116927;28;19908;-52
2023/10/17 18:40:25;;;;;;;;;;;;;;;;;;5117894;28;19923;-58
2023/10/17 18:42:51;;;;;;;;;;;;;;;;;;5118065;28;19916;-54
2023/10/17 18:45:16;;;;;;;;;;;;;;;;;;5116028;28;19983;-52
2023/10/17 18:47:42;;;;;;;;;;;;;;;;;;5109800;28;19912;-51
2023/10/17 18:50:10;;;;;;;;;;;;;;;;;;5124578;28;19912;-54
2023/10/17 18:52:36;;;;;;;;;;;;;;;;;;5117419;28;19922;-57
2023/10/17 18:55:04;;;;;;;;;;;;;;;;;;5112892;28;19939;-53